createdAt,value
2022-11-22T00:03:02.435Z,96.40
2022-11-22T00:06:04.910Z,96.51
2022-11-22T00:09:07.423Z,96.40
2022-11-22T00:12:09.903Z,96.14
2022-11-22T00:15:12.820Z,95.63
2022-11-22T00:18:15.250Z,95.54
2022-11-22T00:21:17.693Z,94.73
2022-11-22T00:24:20.141Z,94.67
2022-11-22T00:27:22.602Z,94.67
2022-11-22T00:30:25.015Z,94.52
2022-11-22T00:33:27.432Z,95.03
2022-11-22T00:36:29.830Z,95.07
2022-11-22T00:39:32.579Z,95.16
2022-11-22T00:42:35.186Z,94.92
2022-11-22T00:45:37.638Z,95.22
2022-11-22T00:48:40.170Z,95.51
2022-11-22T00:51:42.588Z,95.60
2022-11-22T00:54:50.048Z,95.32
2022-11-22T00:57:55.599Z,95.13
2022-11-22T01:00:58.812Z,95.47
2022-11-22T01:04:01.409Z,95.39
2022-11-22T01:07:03.975Z,96.61
2022-11-22T01:10:06.919Z,96.72
2022-11-22T01:13:10.204Z,97.16
2022-11-22T01:16:14.000Z,97.23
2022-11-22T01:19:16.611Z,97.55
2022-11-22T01:22:19.097Z,97.40
2022-11-22T01:25:21.628Z,97.27
2022-11-22T01:28:24.184Z,96.56
2022-11-22T01:31:26.656Z,95.39
2022-11-22T01:34:29.070Z,95.62
2022-11-22T01:37:31.500Z,95.44
2022-11-22T01:40:33.919Z,94.96
2022-11-22T01:43:36.346Z,94.23
2022-11-22T01:46:39.700Z,94.74
2022-11-22T01:49:51.893Z,95.28
2022-11-22T01:52:55.627Z,94.82
2022-11-22T01:56:00.212Z,95.84
2022-11-22T01:59:07.508Z,94.36
2022-11-22T02:02:09.963Z,95.05
2022-11-22T02:05:15.620Z,95.67
2022-11-22T02:08:24.353Z,96.02
2022-11-22T02:11:32.635Z,95.66
2022-11-22T02:14:37.020Z,95.73
2022-11-22T02:17:39.444Z,96.25
2022-11-22T02:20:41.936Z,95.84
2022-11-22T02:23:51.810Z,96.10
2022-11-22T02:26:54.307Z,95.99
2022-11-22T02:29:57.548Z,95.48
2022-11-22T02:33:00.042Z,95.91
2022-11-22T02:36:02.675Z,95.84
2022-11-22T02:39:05.861Z,95.59
2022-11-22T02:42:08.332Z,95.78
2022-11-22T02:45:11.133Z,96.73
2022-11-22T02:48:16.481Z,96.55
2022-11-22T02:51:20.222Z,97.05
2022-11-22T02:54:22.914Z,96.95
2022-11-22T02:57:25.364Z,96.63
2022-11-22T03:00:27.875Z,97.27
2022-11-22T03:03:31.714Z,97.05
2022-11-22T03:06:34.201Z,97.62
2022-11-22T03:09:36.765Z,97.18
2022-11-22T03:12:39.200Z,97.96
2022-11-22T03:15:41.635Z,97.38
2022-11-22T03:18:44.152Z,97.72
2022-11-22T03:21:46.635Z,97.85
2022-11-22T03:24:49.051Z,98.04
2022-11-22T03:27:51.416Z,97.64
2022-11-22T03:30:53.782Z,97.09
2022-11-22T03:33:56.716Z,97.03
2022-11-22T03:36:59.319Z,96.49
2022-11-22T03:40:01.860Z,97.14
2022-11-22T03:43:04.465Z,96.92
2022-11-22T03:46:06.899Z,97.25
2022-11-22T03:49:10.857Z,96.78
2022-11-22T03:52:13.359Z,96.86
2022-11-22T03:55:16.081Z,97.25
2022-11-22T03:58:18.593Z,97.14
2022-11-22T04:01:21.117Z,97.63
2022-11-22T04:04:23.634Z,97.47
2022-11-22T04:07:26.062Z,96.94
2022-11-22T04:10:28.512Z,97.11
2022-11-22T04:13:49.324Z,97.26
2022-11-22T04:16:51.769Z,97.23
2022-11-22T04:20:13.134Z,97.13
2022-11-22T04:23:20.360Z,97.72
2022-11-22T04:26:22.765Z,97.55
2022-11-22T04:29:25.503Z,97.25
2022-11-22T04:32:45.855Z,97.84
2022-11-22T04:35:48.817Z,97.65
2022-11-22T04:38:52.274Z,97.82
2022-11-22T04:42:15.051Z,97.32
2022-11-22T04:45:17.493Z,97.94
2022-11-22T04:48:19.977Z,97.60
2022-11-22T04:51:40.684Z,97.63
2022-11-22T04:54:43.088Z,98.19
2022-11-22T04:57:45.464Z,97.97
2022-11-22T05:00:48.375Z,98.50
2022-11-22T05:03:50.884Z,98.61
2022-11-22T05:06:53.368Z,98.46
2022-11-22T05:09:55.811Z,98.63
2022-11-22T05:12:58.263Z,98.72
2022-11-22T05:16:02.312Z,98.13
2022-11-22T05:19:04.729Z,98.23
2022-11-22T05:22:08.359Z,98.29
2022-11-22T05:25:10.948Z,98.28
2022-11-22T05:28:13.358Z,98.18
2022-11-22T05:31:18.430Z,98.07
2022-11-22T05:34:20.894Z,98.36
2022-11-22T05:37:23.702Z,98.71
2022-11-22T05:40:26.792Z,98.31
2022-11-22T05:43:29.384Z,98.47
2022-11-22T05:46:31.765Z,98.36
2022-11-22T05:49:34.331Z,98.28
2022-11-22T05:52:37.123Z,98.32
2022-11-22T05:55:39.562Z,97.90
2022-11-22T05:58:42.749Z,98.24
2022-11-22T06:01:45.258Z,97.91
2022-11-22T06:04:47.812Z,97.66
2022-11-22T06:07:50.277Z,98.30
2022-11-22T06:10:52.796Z,98.04
2022-11-22T06:13:57.660Z,97.99
2022-11-22T06:17:00.146Z,98.13
2022-11-22T06:20:06.152Z,98.60
2022-11-22T06:23:09.130Z,98.71
2022-11-22T06:26:13.844Z,98.72
2022-11-22T06:29:16.325Z,98.38
2022-11-22T06:32:18.857Z,98.59
2022-11-22T06:35:21.449Z,98.85
2022-11-22T06:38:23.975Z,98.92
2022-11-22T06:41:28.651Z,98.58
2022-11-22T06:44:31.093Z,98.51
2022-11-22T06:47:33.809Z,98.79
2022-11-22T06:50:36.260Z,98.94
2022-11-22T06:53:47.264Z,98.86
2022-11-22T06:56:50.820Z,98.89
2022-11-22T06:59:53.349Z,98.75
2022-11-22T07:02:55.711Z,98.86
2022-11-22T07:05:58.355Z,98.70
2022-11-22T07:09:03.715Z,98.85
2022-11-22T07:12:06.733Z,98.92
2022-11-22T07:15:09.810Z,98.75
2022-11-22T07:18:12.220Z,98.90
2022-11-22T07:21:23.336Z,98.48
2022-11-22T07:24:25.867Z,98.64
2022-11-22T07:27:28.470Z,98.65
2022-11-22T07:30:30.991Z,98.91
2022-11-22T07:33:33.611Z,98.58
2022-11-22T07:36:36.022Z,98.54
2022-11-22T07:39:39.863Z,98.60
2022-11-22T07:42:43.056Z,98.61
2022-11-22T07:45:48.681Z,98.32
2022-11-22T07:48:51.840Z,98.47
2022-11-22T07:51:54.381Z,98.22
2022-11-22T07:54:58.143Z,98.24
2022-11-22T07:58:02.755Z,98.46
2022-11-22T08:01:12.992Z,97.80
2022-11-22T08:04:18.174Z,98.07
2022-11-22T08:07:23.232Z,98.38
2022-11-22T08:10:26.742Z,98.11
2022-11-22T08:13:29.945Z,98.12
2022-11-22T08:16:33.261Z,98.26
2022-11-22T08:19:37.956Z,97.72
2022-11-22T08:22:41.976Z,97.96
2022-11-22T08:25:49.429Z,98.15
2022-11-22T08:28:52.344Z,98.11
2022-11-22T08:31:55.721Z,97.88
2022-11-22T08:34:58.192Z,97.70
2022-11-22T08:38:00.762Z,98.23
2022-11-22T08:41:04.315Z,97.79
2022-11-22T08:44:06.763Z,98.22
2022-11-22T08:47:09.205Z,98.09
2022-11-22T08:50:11.965Z,98.02
2022-11-22T08:53:15.037Z,98.04
2022-11-22T08:56:17.728Z,97.63
2022-11-22T08:59:20.984Z,98.14
2022-11-22T09:02:23.833Z,98.15
2022-11-22T09:05:26.607Z,98.10
2022-11-22T09:08:32.718Z,98.62
2022-11-22T09:11:38.593Z,97.98
2022-11-22T09:14:41.063Z,98.18
2022-11-22T09:17:44.376Z,98.85
2022-11-22T09:20:46.954Z,98.62
2022-11-22T09:23:50.672Z,98.31
2022-11-22T09:26:53.240Z,98.07
2022-11-22T09:29:56.063Z,98.31
2022-11-22T09:32:58.848Z,97.86
2022-11-22T09:36:04.304Z,97.69
2022-11-22T09:39:07.387Z,98.08
2022-11-22T09:42:13.134Z,97.98
2022-11-22T09:45:21.920Z,97.75
2022-11-22T09:49:10.231Z,97.46
2022-11-22T09:52:31.219Z,97.29
2022-11-22T09:55:42.007Z,97.20
2022-11-22T09:58:56.048Z,97.37
2022-11-22T10:02:26.780Z,96.84
2022-11-22T10:05:54.198Z,97.50
2022-11-22T10:09:22.991Z,97.59
2022-11-22T10:12:46.835Z,96.91
2022-11-22T10:15:59.560Z,97.23
2022-11-22T10:19:34.971Z,96.56
2022-11-22T10:22:39.394Z,96.43
2022-11-22T10:25:51.712Z,96.88
2022-11-22T10:29:18.103Z,96.43
2022-11-22T10:32:40.048Z,96.62
2022-11-22T10:35:56.676Z,97.00
2022-11-22T10:39:19.613Z,97.19
2022-11-22T10:42:52.541Z,97.38
2022-11-22T10:46:15.036Z,96.83
2022-11-22T10:49:41.465Z,96.45
2022-11-22T10:52:51.333Z,96.78
2022-11-22T10:55:58.547Z,96.94
2022-11-22T10:59:05.610Z,96.09
2022-11-22T11:02:41.290Z,96.09
2022-11-22T11:06:29.453Z,95.75
2022-11-22T11:10:12.153Z,95.43
2022-11-22T11:13:29.666Z,95.58
2022-11-22T11:16:37.507Z,96.05
2022-11-22T11:19:42.910Z,95.95
2022-11-22T11:23:17.079Z,95.97
2022-11-22T11:26:33.753Z,96.01
2022-11-22T11:29:42.600Z,95.68
2022-11-22T11:32:55.866Z,95.82
2022-11-22T11:36:22.665Z,94.18
2022-11-22T11:39:40.583Z,95.30
2022-11-22T11:42:47.717Z,95.71
2022-11-22T11:45:53.945Z,95.84
2022-11-22T11:49:11.592Z,95.63
2022-11-22T11:52:24.038Z,95.71
2022-11-22T11:55:32.354Z,95.04
2022-11-22T11:58:36.682Z,95.51
2022-11-22T12:01:56.608Z,95.50
2022-11-22T12:05:13.988Z,95.25
2022-11-22T12:08:32.001Z,94.81
2022-11-22T12:11:44.047Z,93.87
2022-11-22T12:15:11.151Z,93.57
2022-11-22T12:18:37.555Z,93.89
2022-11-22T12:21:46.084Z,94.34
2022-11-22T12:25:30.517Z,92.88
2022-11-22T12:28:22.950Z,93.22
2022-11-22T12:31:35.674Z,93.27
2022-11-22T12:35:02.439Z,93.00
2022-11-22T12:38:12.633Z,93.96
2022-11-22T12:41:17.224Z,94.17
2022-11-22T12:44:20.875Z,93.51
2022-11-22T12:47:27.039Z,93.25
2022-11-22T12:50:36.996Z,93.06
2022-11-22T12:53:42.494Z,92.96
2022-11-22T12:56:56.742Z,93.18
2022-11-22T13:00:04.409Z,92.71
2022-11-22T13:03:16.491Z,93.02
2022-11-22T13:06:23.192Z,93.30
2022-11-22T13:09:32.819Z,92.27
2022-11-22T13:12:38.686Z,92.66
2022-11-22T13:15:41.208Z,92.11
2022-11-22T13:18:57.024Z,92.45
2022-11-22T13:22:10.510Z,93.42
2022-11-22T13:25:32.046Z,93.35
2022-11-22T13:28:36.886Z,92.63
2022-11-22T13:32:04.507Z,93.04
2022-11-22T13:35:12.803Z,92.97
2022-11-22T13:38:17.488Z,92.54
2022-11-22T13:41:37.044Z,92.73
2022-11-22T13:44:52.477Z,93.35
2022-11-22T13:47:55.028Z,92.95
2022-11-22T13:50:59.528Z,91.94
2022-11-22T13:54:33.405Z,93.10
2022-11-22T13:57:40.226Z,92.97
2022-11-22T14:00:42.905Z,93.01
2022-11-22T14:03:45.394Z,92.87
2022-11-22T14:07:24.858Z,92.94
2022-11-22T14:10:34.562Z,92.52
2022-11-22T14:13:52.211Z,92.60
2022-11-22T14:17:06.616Z,92.46
2022-11-22T14:21:06.643Z,92.64
2022-11-22T14:24:08.997Z,93.05
2022-11-22T14:27:20.611Z,92.21
2022-11-22T14:30:38.207Z,92.85
2022-11-22T14:34:19.128Z,92.44
2022-11-22T14:37:34.892Z,91.97
2022-11-22T14:40:38.098Z,92.03
2022-11-22T14:43:41.398Z,91.21
2022-11-22T14:46:54.761Z,91.05
2022-11-22T14:49:57.442Z,91.02
2022-11-22T14:53:07.988Z,91.21
2022-11-22T14:56:18.916Z,91.62
2022-11-22T14:59:51.219Z,90.88
2022-11-22T15:02:59.719Z,90.61
2022-11-22T15:09:16.793Z,90.07
2022-11-22T15:09:53.529Z,91.26
2022-11-22T15:13:15.306Z,90.79
2022-11-22T15:58:01.231Z,90.62
2022-11-22T16:01:18.728Z,90.57
2022-11-22T16:04:27.802Z,90.71
2022-11-22T16:07:36.451Z,90.36
2022-11-22T16:10:42.788Z,90.83
2022-11-22T16:13:45.319Z,90.04
2022-11-22T16:16:47.911Z,90.20
2022-11-22T16:19:50.677Z,90.78
2022-11-22T16:23:26.031Z,90.38
2022-11-22T16:26:31.652Z,90.80
2022-11-22T16:29:35.923Z,90.20
2022-11-22T16:32:38.728Z,90.52
2022-11-22T16:35:41.132Z,90.48
2022-11-22T16:38:44.319Z,90.26
2022-11-22T16:41:47.543Z,90.44
2022-11-22T16:44:51.008Z,90.52
2022-11-22T16:48:16.725Z,90.05
2022-11-22T16:51:28.950Z,89.74
2022-11-22T16:54:32.638Z,89.77
2022-11-22T16:57:35.213Z,89.42
2022-11-22T17:00:37.980Z,90.02
2022-11-22T17:03:41.834Z,89.69
2022-11-22T17:06:44.832Z,88.66
2022-11-22T17:09:47.343Z,89.33
2022-11-22T17:12:49.903Z,89.48
2022-11-22T17:15:54.300Z,88.86
2022-11-22T17:18:58.640Z,89.34
2022-11-22T17:22:01.117Z,88.54
2022-11-22T17:25:04.203Z,89.18
2022-11-22T17:28:06.937Z,89.14
2022-11-22T17:31:12.904Z,89.40
2022-11-22T17:34:15.654Z,88.43
2022-11-22T17:37:18.387Z,88.78
2022-11-22T17:40:20.997Z,88.20
2022-11-22T17:43:23.628Z,88.04
2022-11-22T17:46:26.967Z,88.57
2022-11-22T17:49:30.335Z,87.77
2022-11-22T17:52:33.275Z,87.32
2022-11-22T17:56:02.811Z,87.91
2022-11-22T17:59:00.591Z,88.32
2022-11-22T18:02:03.485Z,87.58
2022-11-22T18:05:09.670Z,86.73
2022-11-22T18:08:12.343Z,87.26
2022-11-22T18:11:15.910Z,87.15
2022-11-22T18:14:18.528Z,86.47
2022-11-22T18:17:21.344Z,86.18
2022-11-22T18:20:23.934Z,85.59
2022-11-22T18:23:31.748Z,85.90
2022-11-22T18:26:40.041Z,85.77
2022-11-22T18:29:43.505Z,85.82
2022-11-22T18:32:46.280Z,85.61
2022-11-22T18:35:58.707Z,85.69
2022-11-22T18:39:01.368Z,83.01
2022-11-22T18:42:17.032Z,83.03
2022-11-22T18:45:19.900Z,84.84
2022-11-22T18:48:22.581Z,83.21
2022-11-22T18:51:25.332Z,84.06
2022-11-22T18:54:28.055Z,84.10
2022-11-22T18:57:30.859Z,84.48
2022-11-22T19:00:33.565Z,83.93
2022-11-22T19:03:37.420Z,84.35
2022-11-22T19:06:40.818Z,83.60
2022-11-22T19:09:43.679Z,85.08
2022-11-22T19:12:46.137Z,86.02
2022-11-22T19:15:49.110Z,85.42
2022-11-22T19:18:52.293Z,85.72
2022-11-22T19:21:55.217Z,85.63
2022-11-22T19:25:10.270Z,84.76
2022-11-22T19:28:12.990Z,83.78
2022-11-22T19:31:17.895Z,85.06
2022-11-22T19:34:20.621Z,84.60
2022-11-22T19:37:25.644Z,84.63
2022-11-22T19:40:28.373Z,83.35
2022-11-22T19:43:31.242Z,84.18
2022-11-22T19:46:34.306Z,84.76
2022-11-22T19:49:37.264Z,84.21
2022-11-22T19:52:39.885Z,83.67
2022-11-22T19:55:45.557Z,82.35
2022-11-22T19:58:55.300Z,83.00
2022-11-22T20:01:58.504Z,82.95
2022-11-22T20:05:01.196Z,82.21
2022-11-22T20:08:03.994Z,82.22
2022-11-22T20:11:09.130Z,82.89
2022-11-22T20:14:11.807Z,82.43
2022-11-22T20:17:14.489Z,81.50
2022-11-22T20:20:17.400Z,79.03
2022-11-22T20:23:20.272Z,78.28
2022-11-22T20:26:24.036Z,79.18
2022-11-22T20:29:26.730Z,80.05
2022-11-22T20:32:29.583Z,79.85
2022-11-22T20:35:32.263Z,80.89
2022-11-22T20:38:36.336Z,79.81
2022-11-22T20:41:39.658Z,78.73
2022-11-22T20:44:42.234Z,79.68
2022-11-22T20:47:45.020Z,78.68
2022-11-22T20:50:52.134Z,78.01
2022-11-22T20:53:55.313Z,77.61
2022-11-22T20:56:57.959Z,78.24
2022-11-22T21:00:00.656Z,79.50
2022-11-22T21:03:03.280Z,79.68
2022-11-22T21:06:05.918Z,79.64
2022-11-22T21:09:08.561Z,80.70
2022-11-22T21:12:11.103Z,80.98
2022-11-22T21:15:18.271Z,81.41
2022-11-22T21:18:25.955Z,80.15
2022-11-22T21:21:30.461Z,80.98
2022-11-22T21:24:33.062Z,81.09
2022-11-22T21:27:35.593Z,80.17
2022-11-22T21:30:38.021Z,79.88
2022-11-22T21:33:42.653Z,79.91
2022-11-22T21:36:45.338Z,79.51
2022-11-22T21:39:48.870Z,81.02
2022-11-22T21:42:51.279Z,80.22
2022-11-22T21:45:54.074Z,80.29
2022-11-22T21:48:56.819Z,80.51
2022-11-22T21:51:59.513Z,80.20
2022-11-22T21:55:02.085Z,79.83
2022-11-22T21:58:04.630Z,79.77
2022-11-22T22:01:13.570Z,79.43
2022-11-22T22:04:16.716Z,80.17
2022-11-22T22:07:44.765Z,78.85
2022-11-22T22:10:41.450Z,79.15
2022-11-22T22:13:43.844Z,78.62
2022-11-22T22:16:46.295Z,79.16
2022-11-22T22:19:49.552Z,79.41
2022-11-22T22:22:52.020Z,79.09
2022-11-22T22:25:59.370Z,78.54
2022-11-22T22:29:01.939Z,77.72
2022-11-22T22:32:10.219Z,77.41
2022-11-22T22:35:13.030Z,77.33
2022-11-22T22:38:15.496Z,77.95
2022-11-22T22:41:19.934Z,77.80
2022-11-22T22:44:22.336Z,77.69
2022-11-22T22:47:24.697Z,75.11
2022-11-22T22:50:27.075Z,75.74
2022-11-22T22:53:30.400Z,75.83
2022-11-22T22:56:33.965Z,75.02
2022-11-22T22:59:36.573Z,75.09
2022-11-22T23:02:39.077Z,75.21
2022-11-22T23:05:41.927Z,75.04
2022-11-22T23:08:46.727Z,74.81
2022-11-22T23:12:21.526Z,74.07
2022-11-22T23:15:43.917Z,73.80
2022-11-22T23:18:46.604Z,73.19
2022-11-22T23:21:49.628Z,74.13
2022-11-22T23:24:52.025Z,71.34
2022-11-22T23:27:54.532Z,72.98
2022-11-22T23:30:57.917Z,73.30
2022-11-22T23:34:01.544Z,72.38
2022-11-22T23:37:03.939Z,73.39
2022-11-22T23:40:07.021Z,73.20
2022-11-22T23:43:09.468Z,72.29
2022-11-22T23:46:16.190Z,71.96
2022-11-22T23:49:18.783Z,72.10
2022-11-22T23:52:21.355Z,71.76
2022-11-22T23:55:23.774Z,71.51
2022-11-22T23:58:30.133Z,70.48
